sensor_id;sensor_type;location;lat;lon;timestamp;P1;durP1;ratioP1;P2;durP2;ratioP2
14472;SDS011;7322;50.872;4.386;2023-04-16T00:00:00;5.27;;;3.53;;
14472;SDS011;7322;50.872;4.386;2023-04-16T00:02:30;4.07;;;3.20;;
14472;SDS011;7322;50.872;4.386;2023-04-16T00:05:11;4.20;;;3.33;;
14472;SDS011;7322;50.872;4.386;2023-04-16T00:07:39;5.23;;;3.30;;
14472;SDS011;7322;50.872;4.386;2023-04-16T00:10:08;5.87;;;3.47;;
14472;SDS011;7322;50.872;4.386;2023-04-16T00:12:38;5.43;;;3.37;;
14472;SDS011;7322;50.872;4.386;2023-04-16T00:15:07;4.00;;;2.70;;
14472;SDS011;7322;50.872;4.386;2023-04-16T00:17:35;4.37;;;3.00;;
14472;SDS011;7322;50.872;4.386;2023-04-16T00:20:03;6.10;;;3.40;;
14472;SDS011;7322;50.872;4.386;2023-04-16T00:22:30;4.57;;;2.93;;
14472;SDS011;7322;50.872;4.386;2023-04-16T00:24:57;3.87;;;2.73;;
14472;SDS011;7322;50.872;4.386;2023-04-16T00:27:24;4.13;;;2.70;;
14472;SDS011;7322;50.872;4.386;2023-04-16T00:29:54;4.10;;;2.73;;
14472;SDS011;7322;50.872;4.386;2023-04-16T00:32:21;5.47;;;2.97;;
14472;SDS011;7322;50.872;4.386;2023-04-16T00:34:48;4.20;;;2.67;;
14472;SDS011;7322;50.872;4.386;2023-04-16T00:37:16;3.87;;;2.63;;
14472;SDS011;7322;50.872;4.386;2023-04-16T00:39:43;4.10;;;2.60;;
14472;SDS011;7322;50.872;4.386;2023-04-16T00:42:10;4.10;;;2.90;;
14472;SDS011;7322;50.872;4.386;2023-04-16T00:44:37;4.47;;;2.90;;
14472;SDS011;7322;50.872;4.386;2023-04-16T00:47:05;4.27;;;2.90;;
14472;SDS011;7322;50.872;4.386;2023-04-16T00:49:32;3.87;;;2.70;;
14472;SDS011;7322;50.872;4.386;2023-04-16T00:52:00;2.67;;;2.37;;
14472;SDS011;7322;50.872;4.386;2023-04-16T00:54:27;4.00;;;2.70;;
14472;SDS011;7322;50.872;4.386;2023-04-16T00:56:56;4.70;;;2.50;;
14472;SDS011;7322;50.872;4.386;2023-04-16T00:59:24;3.07;;;2.60;;
14472;SDS011;7322;50.872;4.386;2023-04-16T01:01:51;3.10;;;2.40;;
14472;SDS011;7322;50.872;4.386;2023-04-16T01:04:20;3.67;;;2.60;;
14472;SDS011;7322;50.872;4.386;2023-04-16T01:06:47;3.77;;;2.57;;
14472;SDS011;7322;50.872;4.386;2023-04-16T01:09:15;3.77;;;2.70;;
14472;SDS011;7322;50.872;4.386;2023-04-16T01:11:42;3.03;;;2.47;;
14472;SDS011;7322;50.872;4.386;2023-04-16T01:14:09;3.47;;;2.23;;
14472;SDS011;7322;50.872;4.386;2023-04-16T01:16:38;3.80;;;2.53;;
14472;SDS011;7322;50.872;4.386;2023-04-16T01:19:09;3.73;;;2.57;;
14472;SDS011;7322;50.872;4.386;2023-04-16T01:21:37;3.57;;;2.40;;
14472;SDS011;7322;50.872;4.386;2023-04-16T01:24:04;3.53;;;2.20;;
14472;SDS011;7322;50.872;4.386;2023-04-16T01:26:31;3.47;;;2.50;;
14472;SDS011;7322;50.872;4.386;2023-04-16T01:29:01;3.83;;;2.50;;
14472;SDS011;7322;50.872;4.386;2023-04-16T01:33:59;3.63;;;2.33;;
14472;SDS011;7322;50.872;4.386;2023-04-16T01:36:26;3.30;;;2.20;;
14472;SDS011;7322;50.872;4.386;2023-04-16T01:38:54;3.07;;;2.40;;
14472;SDS011;7322;50.872;4.386;2023-04-16T01:41:22;3.10;;;2.23;;
14472;SDS011;7322;50.872;4.386;2023-04-16T01:43:49;3.50;;;2.33;;
14472;SDS011;7322;50.872;4.386;2023-04-16T01:46:17;3.50;;;2.23;;
14472;SDS011;7322;50.872;4.386;2023-04-16T01:48:48;2.80;;;2.10;;
14472;SDS011;7322;50.872;4.386;2023-04-16T01:51:18;2.47;;;2.17;;
14472;SDS011;7322;50.872;4.386;2023-04-16T01:53:46;2.53;;;2.13;;
14472;SDS011;7322;50.872;4.386;2023-04-16T01:56:16;3.43;;;2.20;;
14472;SDS011;7322;50.872;4.386;2023-04-16T01:58:42;2.87;;;2.27;;
14472;SDS011;7322;50.872;4.386;2023-04-16T02:01:10;4.07;;;2.17;;
14472;SDS011;7322;50.872;4.386;2023-04-16T02:03:38;3.70;;;2.20;;
14472;SDS011;7322;50.872;4.386;2023-04-16T02:06:06;2.93;;;1.90;;
14472;SDS011;7322;50.872;4.386;2023-04-16T02:08:33;2.53;;;2.00;;
14472;SDS011;7322;50.872;4.386;2023-04-16T02:11:00;3.33;;;2.00;;
14472;SDS011;7322;50.872;4.386;2023-04-16T02:13:28;2.27;;;1.87;;
14472;SDS011;7322;50.872;4.386;2023-04-16T02:15:55;3.10;;;2.07;;
14472;SDS011;7322;50.872;4.386;2023-04-16T02:18:23;2.43;;;2.10;;
14472;SDS011;7322;50.872;4.386;2023-04-16T02:20:50;2.37;;;1.80;;
14472;SDS011;7322;50.872;4.386;2023-04-16T02:23:19;2.53;;;1.90;;
14472;SDS011;7322;50.872;4.386;2023-04-16T02:25:47;3.70;;;1.87;;
14472;SDS011;7322;50.872;4.386;2023-04-16T02:28:15;2.37;;;1.77;;
14472;SDS011;7322;50.872;4.386;2023-04-16T02:30:44;2.30;;;1.73;;
14472;SDS011;7322;50.872;4.386;2023-04-16T02:33:12;2.93;;;1.90;;
14472;SDS011;7322;50.872;4.386;2023-04-16T02:38:09;2.90;;;1.90;;
14472;SDS011;7322;50.872;4.386;2023-04-16T02:40:36;3.07;;;2.07;;
14472;SDS011;7322;50.872;4.386;2023-04-16T02:43:03;3.10;;;1.87;;
14472;SDS011;7322;50.872;4.386;2023-04-16T02:45:31;2.50;;;1.70;;
14472;SDS011;7322;50.872;4.386;2023-04-16T02:48:13;1.90;;;1.60;;
14472;SDS011;7322;50.872;4.386;2023-04-16T02:50:41;2.50;;;1.73;;
14472;SDS011;7322;50.872;4.386;2023-04-16T02:53:08;2.07;;;1.70;;
14472;SDS011;7322;50.872;4.386;2023-04-16T02:55:35;2.43;;;1.83;;
14472;SDS011;7322;50.872;4.386;2023-04-16T02:58:02;2.80;;;2.00;;
14472;SDS011;7322;50.872;4.386;2023-04-16T03:00:30;2.77;;;1.70;;
14472;SDS011;7322;50.872;4.386;2023-04-16T03:03:03;2.37;;;1.90;;
14472;SDS011;7322;50.872;4.386;2023-04-16T03:05:32;2.80;;;1.87;;
14472;SDS011;7322;50.872;4.386;2023-04-16T03:07:59;1.77;;;1.50;;
14472;SDS011;7322;50.872;4.386;2023-04-16T03:10:26;2.23;;;1.77;;
14472;SDS011;7322;50.872;4.386;2023-04-16T03:12:54;1.87;;;1.70;;
14472;SDS011;7322;50.872;4.386;2023-04-16T03:15:21;2.57;;;1.57;;
14472;SDS011;7322;50.872;4.386;2023-04-16T03:17:49;2.73;;;1.60;;
14472;SDS011;7322;50.872;4.386;2023-04-16T03:20:33;2.63;;;1.73;;
14472;SDS011;7322;50.872;4.386;2023-04-16T03:23:00;3.17;;;1.90;;
14472;SDS011;7322;50.872;4.386;2023-04-16T03:25:28;1.90;;;1.40;;
14472;SDS011;7322;50.872;4.386;2023-04-16T03:27:56;3.20;;;1.90;;
14472;SDS011;7322;50.872;4.386;2023-04-16T03:30:24;2.37;;;1.57;;
14472;SDS011;7322;50.872;4.386;2023-04-16T03:32:51;2.13;;;1.60;;
14472;SDS011;7322;50.872;4.386;2023-04-16T03:35:18;3.10;;;1.90;;
14472;SDS011;7322;50.872;4.386;2023-04-16T03:37:47;2.37;;;1.60;;
14472;SDS011;7322;50.872;4.386;2023-04-16T03:40:16;2.80;;;1.87;;
14472;SDS011;7322;50.872;4.386;2023-04-16T03:42:43;2.07;;;1.57;;
14472;SDS011;7322;50.872;4.386;2023-04-16T03:45:10;2.77;;;1.60;;
14472;SDS011;7322;50.872;4.386;2023-04-16T03:47:37;2.40;;;1.60;;
14472;SDS011;7322;50.872;4.386;2023-04-16T03:50:04;1.67;;;1.27;;
14472;SDS011;7322;50.872;4.386;2023-04-16T03:52:33;2.33;;;1.60;;
14472;SDS011;7322;50.872;4.386;2023-04-16T03:55:02;1.77;;;1.50;;
14472;SDS011;7322;50.872;4.386;2023-04-16T03:57:29;2.83;;;1.60;;
14472;SDS011;7322;50.872;4.386;2023-04-16T03:59:57;3.17;;;1.60;;
14472;SDS011;7322;50.872;4.386;2023-04-16T04:02:26;2.23;;;1.40;;
14472;SDS011;7322;50.872;4.386;2023-04-16T04:04:55;2.77;;;1.57;;
14472;SDS011;7322;50.872;4.386;2023-04-16T04:07:22;1.60;;;1.30;;
14472;SDS011;7322;50.872;4.386;2023-04-16T04:09:50;1.87;;;1.47;;
14472;SDS011;7322;50.872;4.386;2023-04-16T04:12:19;2.27;;;1.60;;
14472;SDS011;7322;50.872;4.386;2023-04-16T04:14:47;2.37;;;1.50;;
14472;SDS011;7322;50.872;4.386;2023-04-16T04:17:14;2.50;;;1.57;;
14472;SDS011;7322;50.872;4.386;2023-04-16T04:19:42;2.60;;;1.40;;
14472;SDS011;7322;50.872;4.386;2023-04-16T04:22:09;2.57;;;1.50;;
14472;SDS011;7322;50.872;4.386;2023-04-16T04:24:36;3.70;;;1.33;;
14472;SDS011;7322;50.872;4.386;2023-04-16T04:27:03;2.17;;;1.30;;
14472;SDS011;7322;50.872;4.386;2023-04-16T04:29:31;1.50;;;1.40;;
14472;SDS011;7322;50.872;4.386;2023-04-16T04:31:59;2.13;;;1.40;;
14472;SDS011;7322;50.872;4.386;2023-04-16T04:34:26;3.00;;;1.43;;
14472;SDS011;7322;50.872;4.386;2023-04-16T04:36:53;1.87;;;1.40;;
14472;SDS011;7322;50.872;4.386;2023-04-16T04:41:52;2.20;;;1.37;;
14472;SDS011;7322;50.872;4.386;2023-04-16T04:44:20;2.47;;;1.50;;
14472;SDS011;7322;50.872;4.386;2023-04-16T04:46:50;3.00;;;1.67;;
14472;SDS011;7322;50.872;4.386;2023-04-16T04:49:18;2.23;;;1.40;;
14472;SDS011;7322;50.872;4.386;2023-04-16T04:51:45;1.77;;;1.30;;
14472;SDS011;7322;50.872;4.386;2023-04-16T04:54:13;1.67;;;1.37;;
14472;SDS011;7322;50.872;4.386;2023-04-16T04:56:41;1.90;;;1.20;;
14472;SDS011;7322;50.872;4.386;2023-04-16T04:59:10;2.83;;;1.37;;
14472;SDS011;7322;50.872;4.386;2023-04-16T05:01:37;1.83;;;1.17;;
14472;SDS011;7322;50.872;4.386;2023-04-16T05:04:05;1.60;;;1.30;;
14472;SDS011;7322;50.872;4.386;2023-04-16T05:09:03;1.93;;;1.30;;
14472;SDS011;7322;50.872;4.386;2023-04-16T05:11:32;1.90;;;1.30;;
14472;SDS011;7322;50.872;4.386;2023-04-16T05:13:59;1.77;;;1.00;;
14472;SDS011;7322;50.872;4.386;2023-04-16T05:18:56;3.13;;;1.37;;
14472;SDS011;7322;50.872;4.386;2023-04-16T05:21:24;1.27;;;1.17;;
14472;SDS011;7322;50.872;4.386;2023-04-16T05:23:51;1.97;;;1.00;;
14472;SDS011;7322;50.872;4.386;2023-04-16T05:26:18;1.77;;;1.20;;
14472;SDS011;7322;50.872;4.386;2023-04-16T05:28:45;3.53;;;1.33;;
14472;SDS011;7322;50.872;4.386;2023-04-16T05:31:12;2.30;;;1.20;;
14472;SDS011;7322;50.872;4.386;2023-04-16T05:33:40;1.37;;;1.00;;
14472;SDS011;7322;50.872;4.386;2023-04-16T05:36:07;2.03;;;1.50;;
14472;SDS011;7322;50.872;4.386;2023-04-16T05:38:36;1.90;;;1.20;;
14472;SDS011;7322;50.872;4.386;2023-04-16T05:41:04;1.13;;;1.03;;
14472;SDS011;7322;50.872;4.386;2023-04-16T05:43:31;1.83;;;1.10;;
14472;SDS011;7322;50.872;4.386;2023-04-16T05:45:59;2.10;;;1.30;;
14472;SDS011;7322;50.872;4.386;2023-04-16T05:48:26;1.57;;;1.20;;
14472;SDS011;7322;50.872;4.386;2023-04-16T05:50:55;1.10;;;1.00;;
14472;SDS011;7322;50.872;4.386;2023-04-16T05:53:23;1.87;;;1.00;;
14472;SDS011;7322;50.872;4.386;2023-04-16T05:55:54;1.43;;;1.23;;
14472;SDS011;7322;50.872;4.386;2023-04-16T05:58:23;1.60;;;1.10;;
14472;SDS011;7322;50.872;4.386;2023-04-16T06:00:51;2.03;;;1.20;;
14472;SDS011;7322;50.872;4.386;2023-04-16T06:03:20;3.43;;;1.30;;
14472;SDS011;7322;50.872;4.386;2023-04-16T06:05:59;2.30;;;1.20;;
14472;SDS011;7322;50.872;4.386;2023-04-16T06:08:27;2.30;;;1.20;;
14472;SDS011;7322;50.872;4.386;2023-04-16T06:10:56;2.27;;;1.20;;
14472;SDS011;7322;50.872;4.386;2023-04-16T06:13:23;1.37;;;0.90;;
14472;SDS011;7322;50.872;4.386;2023-04-16T06:15:50;3.07;;;1.23;;
14472;SDS011;7322;50.872;4.386;2023-04-16T06:18:17;2.67;;;1.00;;
14472;SDS011;7322;50.872;4.386;2023-04-16T06:20:46;1.83;;;1.13;;
14472;SDS011;7322;50.872;4.386;2023-04-16T06:23:13;2.23;;;1.17;;
14472;SDS011;7322;50.872;4.386;2023-04-16T06:25:40;3.97;;;1.13;;
14472;SDS011;7322;50.872;4.386;2023-04-16T06:28:09;1.93;;;1.30;;
14472;SDS011;7322;50.872;4.386;2023-04-16T06:30:38;1.70;;;1.10;;
14472;SDS011;7322;50.872;4.386;2023-04-16T06:33:05;1.90;;;1.20;;
14472;SDS011;7322;50.872;4.386;2023-04-16T06:35:34;2.00;;;1.20;;
14472;SDS011;7322;50.872;4.386;2023-04-16T06:38:01;1.63;;;1.03;;
14472;SDS011;7322;50.872;4.386;2023-04-16T06:40:28;1.63;;;1.00;;
14472;SDS011;7322;50.872;4.386;2023-04-16T06:42:55;2.23;;;1.00;;
14472;SDS011;7322;50.872;4.386;2023-04-16T06:45:23;1.53;;;1.10;;
14472;SDS011;7322;50.872;4.386;2023-04-16T06:47:51;1.63;;;1.00;;
14472;SDS011;7322;50.872;4.386;2023-04-16T06:50:18;2.90;;;1.20;;
14472;SDS011;7322;50.872;4.386;2023-04-16T06:52:47;2.00;;;1.07;;
14472;SDS011;7322;50.872;4.386;2023-04-16T06:55:14;1.23;;;0.90;;
14472;SDS011;7322;50.872;4.386;2023-04-16T06:57:41;2.43;;;1.20;;
14472;SDS011;7322;50.872;4.386;2023-04-16T07:00:08;1.53;;;0.93;;
14472;SDS011;7322;50.872;4.386;2023-04-16T07:02:39;1.73;;;1.13;;
14472;SDS011;7322;50.872;4.386;2023-04-16T07:05:06;1.57;;;1.00;;
14472;SDS011;7322;50.872;4.386;2023-04-16T07:07:34;1.30;;;1.10;;
14472;SDS011;7322;50.872;4.386;2023-04-16T07:10:01;2.57;;;1.20;;
14472;SDS011;7322;50.872;4.386;2023-04-16T07:12:29;2.60;;;1.17;;
14472;SDS011;7322;50.872;4.386;2023-04-16T07:15:03;1.90;;;1.10;;
14472;SDS011;7322;50.872;4.386;2023-04-16T07:20:04;1.53;;;1.10;;
14472;SDS011;7322;50.872;4.386;2023-04-16T07:22:32;1.77;;;1.13;;
14472;SDS011;7322;50.872;4.386;2023-04-16T07:25:07;2.67;;;1.10;;
14472;SDS011;7322;50.872;4.386;2023-04-16T07:30:05;1.77;;;1.10;;
14472;SDS011;7322;50.872;4.386;2023-04-16T07:32:33;1.67;;;1.00;;
14472;SDS011;7322;50.872;4.386;2023-04-16T07:35:01;3.30;;;1.37;;
14472;SDS011;7322;50.872;4.386;2023-04-16T07:37:30;2.67;;;1.30;;
14472;SDS011;7322;50.872;4.386;2023-04-16T07:39:58;1.60;;;1.10;;
14472;SDS011;7322;50.872;4.386;2023-04-16T07:42:26;1.97;;;1.30;;
14472;SDS011;7322;50.872;4.386;2023-04-16T07:44:54;1.53;;;1.30;;
14472;SDS011;7322;50.872;4.386;2023-04-16T07:47:28;3.27;;;1.20;;
14472;SDS011;7322;50.872;4.386;2023-04-16T07:49:56;2.60;;;1.40;;
14472;SDS011;7322;50.872;4.386;2023-04-16T07:52:24;3.60;;;1.40;;
14472;SDS011;7322;50.872;4.386;2023-04-16T07:54:52;2.27;;;1.10;;
14472;SDS011;7322;50.872;4.386;2023-04-16T07:57:19;1.73;;;1.20;;
14472;SDS011;7322;50.872;4.386;2023-04-16T07:59:50;1.97;;;1.33;;
14472;SDS011;7322;50.872;4.386;2023-04-16T08:02:19;2.60;;;1.27;;
14472;SDS011;7322;50.872;4.386;2023-04-16T08:04:55;2.57;;;1.00;;
14472;SDS011;7322;50.872;4.386;2023-04-16T08:12:56;3.22;;;1.60;;
14472;SDS011;7322;50.872;4.386;2023-04-16T08:15:37;2.40;;;1.17;;
14472;SDS011;7322;50.872;4.386;2023-04-16T08:20:39;2.43;;;1.10;;
14472;SDS011;7322;50.872;4.386;2023-04-16T08:23:07;3.63;;;1.67;;
14472;SDS011;7322;50.872;4.386;2023-04-16T08:25:36;2.53;;;1.60;;
14472;SDS011;7322;50.872;4.386;2023-04-16T08:28:05;4.13;;;1.70;;
14472;SDS011;7322;50.872;4.386;2023-04-16T08:30:32;3.80;;;2.03;;
14472;SDS011;7322;50.872;4.386;2023-04-16T08:32:59;6.03;;;2.10;;
14472;SDS011;7322;50.872;4.386;2023-04-16T08:35:27;4.70;;;1.60;;
14472;SDS011;7322;50.872;4.386;2023-04-16T08:38:07;10.17;;;2.60;;
14472;SDS011;7322;50.872;4.386;2023-04-16T08:43:30;6.73;;;2.80;;
14472;SDS011;7322;50.872;4.386;2023-04-16T08:48:57;7.00;;;3.00;;
14472;SDS011;7322;50.872;4.386;2023-04-16T08:51:27;8.33;;;2.87;;
14472;SDS011;7322;50.872;4.386;2023-04-16T08:54:18;5.37;;;2.83;;
14472;SDS011;7322;50.872;4.386;2023-04-16T08:59:46;7.63;;;2.93;;
14472;SDS011;7322;50.872;4.386;2023-04-16T09:02:22;4.13;;;2.50;;
14472;SDS011;7322;50.872;4.386;2023-04-16T09:05:01;9.63;;;2.70;;
14472;SDS011;7322;50.872;4.386;2023-04-16T09:07:49;6.63;;;2.47;;
14472;SDS011;7322;50.872;4.386;2023-04-16T09:10:26;6.27;;;2.20;;
14472;SDS011;7322;50.872;4.386;2023-04-16T09:13:04;4.57;;;2.40;;
14472;SDS011;7322;50.872;4.386;2023-04-16T09:15:39;8.37;;;2.80;;
14472;SDS011;7322;50.872;4.386;2023-04-16T09:18:14;10.40;;;2.80;;
14472;SDS011;7322;50.872;4.386;2023-04-16T09:20:47;5.57;;;2.50;;
14472;SDS011;7322;50.872;4.386;2023-04-16T09:23:15;6.87;;;2.77;;
14472;SDS011;7322;50.872;4.386;2023-04-16T09:25:43;4.67;;;2.50;;
14472;SDS011;7322;50.872;4.386;2023-04-16T09:31:18;7.07;;;2.93;;
14472;SDS011;7322;50.872;4.386;2023-04-16T09:34:00;7.77;;;2.83;;
14472;SDS011;7322;50.872;4.386;2023-04-16T09:36:34;5.40;;;2.40;;
14472;SDS011;7322;50.872;4.386;2023-04-16T09:47:39;7.70;;;2.97;;
14472;SDS011;7322;50.872;4.386;2023-04-16T09:50:07;7.20;;;3.10;;
14472;SDS011;7322;50.872;4.386;2023-04-16T09:55:34;11.03;;;4.00;;
14472;SDS011;7322;50.872;4.386;2023-04-16T09:58:05;8.87;;;4.27;;
14472;SDS011;7322;50.872;4.386;2023-04-16T10:00:39;7.90;;;4.30;;
14472;SDS011;7322;50.872;4.386;2023-04-16T10:03:06;11.63;;;4.20;;
14472;SDS011;7322;50.872;4.386;2023-04-16T10:05:41;8.70;;;3.90;;
14472;SDS011;7322;50.872;4.386;2023-04-16T10:08:22;8.30;;;4.17;;
14472;SDS011;7322;50.872;4.386;2023-04-16T10:11:00;8.40;;;4.50;;
14472;SDS011;7322;50.872;4.386;2023-04-16T10:13:29;7.90;;;4.43;;
14472;SDS011;7322;50.872;4.386;2023-04-16T10:16:05;8.03;;;4.50;;
14472;SDS011;7322;50.872;4.386;2023-04-16T10:21:04;10.17;;;5.30;;
14472;SDS011;7322;50.872;4.386;2023-04-16T10:23:42;13.83;;;5.57;;
14472;SDS011;7322;50.872;4.386;2023-04-16T10:26:10;9.97;;;5.10;;
14472;SDS011;7322;50.872;4.386;2023-04-16T10:28:37;7.73;;;4.73;;
14472;SDS011;7322;50.872;4.386;2023-04-16T10:31:07;9.90;;;4.90;;
14472;SDS011;7322;50.872;4.386;2023-04-16T10:36:07;12.13;;;5.00;;
14472;SDS011;7322;50.872;4.386;2023-04-16T10:38:37;13.67;;;4.90;;
14472;SDS011;7322;50.872;4.386;2023-04-16T10:41:06;8.87;;;4.70;;
14472;SDS011;7322;50.872;4.386;2023-04-16T10:43:38;9.77;;;4.83;;
14472;SDS011;7322;50.872;4.386;2023-04-16T10:46:22;14.07;;;5.03;;
14472;SDS011;7322;50.872;4.386;2023-04-16T10:48:52;21.07;;;6.20;;
14472;SDS011;7322;50.872;4.386;2023-04-16T10:51:28;14.23;;;5.03;;
14472;SDS011;7322;50.872;4.386;2023-04-16T10:54:01;18.20;;;5.90;;
14472;SDS011;7322;50.872;4.386;2023-04-16T10:56:33;18.23;;;6.23;;
14472;SDS011;7322;50.872;4.386;2023-04-16T10:59:03;11.40;;;5.77;;
14472;SDS011;7322;50.872;4.386;2023-04-16T11:12:40;16.00;;;5.63;;
14472;SDS011;7322;50.872;4.386;2023-04-16T11:15:18;11.53;;;5.43;;
14472;SDS011;7322;50.872;4.386;2023-04-16T11:17:48;17.87;;;6.07;;
14472;SDS011;7322;50.872;4.386;2023-04-16T11:20:23;16.83;;;6.03;;
14472;SDS011;7322;50.872;4.386;2023-04-16T11:23:01;16.27;;;6.57;;
14472;SDS011;7322;50.872;4.386;2023-04-16T11:25:30;14.70;;;6.30;;
14472;SDS011;7322;50.872;4.386;2023-04-16T11:27:58;11.37;;;5.77;;
14472;SDS011;7322;50.872;4.386;2023-04-16T11:30:27;16.97;;;5.80;;
14472;SDS011;7322;50.872;4.386;2023-04-16T11:32:59;11.90;;;5.57;;
14472;SDS011;7322;50.872;4.386;2023-04-16T11:35:52;15.30;;;5.40;;
14472;SDS011;7322;50.872;4.386;2023-04-16T11:38:38;13.97;;;6.23;;
14472;SDS011;7322;50.872;4.386;2023-04-16T11:53:17;12.17;;;5.63;;
14472;SDS011;7322;50.872;4.386;2023-04-16T11:55:53;14.20;;;5.70;;
14472;SDS011;7322;50.872;4.386;2023-04-16T12:01:00;10.83;;;5.63;;
14472;SDS011;7322;50.872;4.386;2023-04-16T12:03:38;10.60;;;5.80;;
14472;SDS011;7322;50.872;4.386;2023-04-16T12:06:10;11.77;;;6.47;;
14472;SDS011;7322;50.872;4.386;2023-04-16T12:08:41;10.43;;;6.23;;
14472;SDS011;7322;50.872;4.386;2023-04-16T12:11:13;12.90;;;5.97;;
14472;SDS011;7322;50.872;4.386;2023-04-16T12:16:34;13.73;;;5.73;;
14472;SDS011;7322;50.872;4.386;2023-04-16T12:19:11;9.30;;;6.03;;
14472;SDS011;7322;50.872;4.386;2023-04-16T12:21:54;9.50;;;5.27;;
14472;SDS011;7322;50.872;4.386;2023-04-16T12:24:30;10.60;;;5.77;;
14472;SDS011;7322;50.872;4.386;2023-04-16T12:27:04;10.17;;;6.00;;
14472;SDS011;7322;50.872;4.386;2023-04-16T12:29:31;8.87;;;5.93;;
14472;SDS011;7322;50.872;4.386;2023-04-16T12:32:19;10.73;;;6.13;;
14472;SDS011;7322;50.872;4.386;2023-04-16T12:34:51;10.40;;;5.60;;
14472;SDS011;7322;50.872;4.386;2023-04-16T12:37:21;12.33;;;6.43;;
14472;SDS011;7322;50.872;4.386;2023-04-16T12:39:50;10.33;;;5.93;;
14472;SDS011;7322;50.872;4.386;2023-04-16T12:42:18;12.30;;;6.10;;
14472;SDS011;7322;50.872;4.386;2023-04-16T12:44:52;12.30;;;6.10;;
14472;SDS011;7322;50.872;4.386;2023-04-16T12:47:19;9.57;;;6.10;;
14472;SDS011;7322;50.872;4.386;2023-04-16T12:49:59;9.67;;;6.03;;
14472;SDS011;7322;50.872;4.386;2023-04-16T12:52:30;12.20;;;6.00;;
14472;SDS011;7322;50.872;4.386;2023-04-16T12:54:58;10.97;;;6.00;;
14472;SDS011;7322;50.872;4.386;2023-04-16T12:57:26;11.17;;;6.07;;
14472;SDS011;7322;50.872;4.386;2023-04-16T13:02:32;10.40;;;5.17;;
14472;SDS011;7322;50.872;4.386;2023-04-16T13:05:00;10.97;;;5.87;;
14472;SDS011;7322;50.872;4.386;2023-04-16T13:07:30;9.60;;;6.07;;
14472;SDS011;7322;50.872;4.386;2023-04-16T13:10:00;11.33;;;5.50;;
14472;SDS011;7322;50.872;4.386;2023-04-16T13:12:36;8.77;;;5.77;;
14472;SDS011;7322;50.872;4.386;2023-04-16T13:15:18;8.60;;;5.63;;
14472;SDS011;7322;50.872;4.386;2023-04-16T13:17:47;8.83;;;5.43;;
14472;SDS011;7322;50.872;4.386;2023-04-16T13:20:16;12.30;;;5.80;;
14472;SDS011;7322;50.872;4.386;2023-04-16T13:22:54;9.47;;;5.93;;
14472;SDS011;7322;50.872;4.386;2023-04-16T13:25:21;12.00;;;6.30;;
14472;SDS011;7322;50.872;4.386;2023-04-16T13:27:50;9.97;;;5.70;;
14472;SDS011;7322;50.872;4.386;2023-04-16T13:33:06;9.23;;;5.53;;
14472;SDS011;7322;50.872;4.386;2023-04-16T13:38:25;10.83;;;6.37;;
14472;SDS011;7322;50.872;4.386;2023-04-16T13:41:02;8.73;;;6.10;;
14472;SDS011;7322;50.872;4.386;2023-04-16T13:43:35;9.00;;;5.63;;
14472;SDS011;7322;50.872;4.386;2023-04-16T13:46:14;10.47;;;5.93;;
14472;SDS011;7322;50.872;4.386;2023-04-16T13:48:43;9.67;;;5.40;;
14472;SDS011;7322;50.872;4.386;2023-04-16T13:51:17;8.63;;;5.77;;
14472;SDS011;7322;50.872;4.386;2023-04-16T13:57:05;10.10;;;5.80;;
14472;SDS011;7322;50.872;4.386;2023-04-16T13:59:34;9.87;;;5.43;;
14472;SDS011;7322;50.872;4.386;2023-04-16T14:02:06;8.53;;;5.67;;
14472;SDS011;7322;50.872;4.386;2023-04-16T14:07:10;9.00;;;5.90;;
14472;SDS011;7322;50.872;4.386;2023-04-16T14:09:38;7.03;;;5.23;;
14472;SDS011;7322;50.872;4.386;2023-04-16T14:12:14;8.87;;;5.10;;
14472;SDS011;7322;50.872;4.386;2023-04-16T14:14:45;7.67;;;5.33;;
14472;SDS011;7322;50.872;4.386;2023-04-16T14:22:52;9.73;;;5.40;;
14472;SDS011;7322;50.872;4.386;2023-04-16T14:25:19;8.23;;;5.50;;
14472;SDS011;7322;50.872;4.386;2023-04-16T14:27:49;11.33;;;5.67;;
14472;SDS011;7322;50.872;4.386;2023-04-16T14:30:28;12.20;;;5.87;;
14472;SDS011;7322;50.872;4.386;2023-04-16T14:32:55;10.97;;;5.80;;
14472;SDS011;7322;50.872;4.386;2023-04-16T14:35:31;9.77;;;6.00;;
14472;SDS011;7322;50.872;4.386;2023-04-16T14:38:07;8.83;;;5.70;;
14472;SDS011;7322;50.872;4.386;2023-04-16T14:40:36;10.50;;;5.60;;
14472;SDS011;7322;50.872;4.386;2023-04-16T14:43:08;8.17;;;5.57;;
14472;SDS011;7322;50.872;4.386;2023-04-16T14:45:37;9.77;;;5.73;;
14472;SDS011;7322;50.872;4.386;2023-04-16T14:48:13;7.50;;;5.93;;
14472;SDS011;7322;50.872;4.386;2023-04-16T14:50:49;8.13;;;5.57;;
14472;SDS011;7322;50.872;4.386;2023-04-16T14:53:16;8.97;;;6.13;;
14472;SDS011;7322;50.872;4.386;2023-04-16T14:55:46;9.30;;;5.93;;
14472;SDS011;7322;50.872;4.386;2023-04-16T15:01:17;8.10;;;5.47;;
14472;SDS011;7322;50.872;4.386;2023-04-16T15:06:44;8.63;;;5.53;;
14472;SDS011;7322;50.872;4.386;2023-04-16T15:09:26;8.07;;;5.43;;
14472;SDS011;7322;50.872;4.386;2023-04-16T15:11:59;9.73;;;5.60;;
14472;SDS011;7322;50.872;4.386;2023-04-16T15:14:31;10.17;;;6.13;;
14472;SDS011;7322;50.872;4.386;2023-04-16T15:17:00;8.03;;;5.67;;
14472;SDS011;7322;50.872;4.386;2023-04-16T15:19:42;6.80;;;5.40;;
14472;SDS011;7322;50.872;4.386;2023-04-16T15:22:11;8.40;;;5.60;;
14472;SDS011;7322;50.872;4.386;2023-04-16T15:24:41;9.07;;;5.37;;
14472;SDS011;7322;50.872;4.386;2023-04-16T15:27:24;7.30;;;5.97;;
14472;SDS011;7322;50.872;4.386;2023-04-16T15:29:55;8.87;;;5.97;;
14472;SDS011;7322;50.872;4.386;2023-04-16T15:32:40;8.77;;;5.60;;
14472;SDS011;7322;50.872;4.386;2023-04-16T15:38:00;8.33;;;5.70;;
14472;SDS011;7322;50.872;4.386;2023-04-16T15:40:27;7.53;;;5.47;;
14472;SDS011;7322;50.872;4.386;2023-04-16T15:43:07;8.07;;;5.70;;
14472;SDS011;7322;50.872;4.386;2023-04-16T15:45:47;8.20;;;5.73;;
14472;SDS011;7322;50.872;4.386;2023-04-16T15:48:20;7.43;;;5.57;;
14472;SDS011;7322;50.872;4.386;2023-04-16T15:50:47;6.90;;;5.80;;
14472;SDS011;7322;50.872;4.386;2023-04-16T15:53:22;6.53;;;5.47;;
14472;SDS011;7322;50.872;4.386;2023-04-16T15:55:56;7.27;;;5.50;;
14472;SDS011;7322;50.872;4.386;2023-04-16T15:58:29;6.83;;;5.40;;
14472;SDS011;7322;50.872;4.386;2023-04-16T16:00:57;8.17;;;5.77;;
14472;SDS011;7322;50.872;4.386;2023-04-16T16:03:24;7.73;;;5.77;;
14472;SDS011;7322;50.872;4.386;2023-04-16T16:05:51;7.83;;;6.03;;
14472;SDS011;7322;50.872;4.386;2023-04-16T16:08:20;9.33;;;6.07;;
14472;SDS011;7322;50.872;4.386;2023-04-16T16:10:48;11.97;;;6.60;;
14472;SDS011;7322;50.872;4.386;2023-04-16T16:13:23;12.03;;;6.93;;
14472;SDS011;7322;50.872;4.386;2023-04-16T16:15:51;9.47;;;6.23;;
14472;SDS011;7322;50.872;4.386;2023-04-16T16:18:21;12.10;;;6.83;;
14472;SDS011;7322;50.872;4.386;2023-04-16T16:20:50;13.30;;;7.63;;
14472;SDS011;7322;50.872;4.386;2023-04-16T16:23:29;11.47;;;7.40;;
14472;SDS011;7322;50.872;4.386;2023-04-16T16:25:58;10.90;;;6.77;;
14472;SDS011;7322;50.872;4.386;2023-04-16T16:28:25;13.30;;;7.70;;
14472;SDS011;7322;50.872;4.386;2023-04-16T16:30:52;11.23;;;7.77;;
14472;SDS011;7322;50.872;4.386;2023-04-16T16:33:26;12.13;;;8.23;;
14472;SDS011;7322;50.872;4.386;2023-04-16T16:35:59;12.17;;;7.93;;
14472;SDS011;7322;50.872;4.386;2023-04-16T16:38:27;10.43;;;7.97;;
14472;SDS011;7322;50.872;4.386;2023-04-16T16:41:01;13.73;;;9.27;;
14472;SDS011;7322;50.872;4.386;2023-04-16T16:46:39;13.43;;;9.33;;
14472;SDS011;7322;50.872;4.386;2023-04-16T16:49:15;17.37;;;11.07;;
14472;SDS011;7322;50.872;4.386;2023-04-16T16:51:52;16.47;;;11.50;;
14472;SDS011;7322;50.872;4.386;2023-04-16T16:57:06;16.27;;;11.50;;
14472;SDS011;7322;50.872;4.386;2023-04-16T16:59:34;18.80;;;13.30;;
14472;SDS011;7322;50.872;4.386;2023-04-16T17:02:06;19.93;;;12.27;;
14472;SDS011;7322;50.872;4.386;2023-04-16T17:04:36;19.27;;;12.70;;
14472;SDS011;7322;50.872;4.386;2023-04-16T17:07:03;19.63;;;14.20;;
14472;SDS011;7322;50.872;4.386;2023-04-16T17:09:31;22.27;;;14.10;;
14472;SDS011;7322;50.872;4.386;2023-04-16T17:11:59;23.13;;;15.77;;